Hovedside
METAR-TAF:

METAR-TAF

Lufthavner :

Borlänge, Sverige

Dala lufthavn

breddegrad: 60-26N, lengdegrad: 015-31E, høyde over havet: 145 m

Gjeldene værobservasjon

Denne rapporten ble laget for 27 minutter siden, klokken 20:20 UTC
Vind 8 kt fra Nordvest
Temperatur 9°C
Luftfuktighet 61%
Trykk 1019 hPa
Sikt 10 km eller mer

METAR: ESSD 262020Z AUTO 31008KT 9999 NCD 09/02 Q1019

Tid: 22:47 (20:47 UTC)


TAF: fraværende

Værobservasjoner og værvarsel for over 4000 flyplasser (METAR- og TAF-rapporter).

Tilgjengelige stasjoner er representert av de røde og gule prikkene på kartet.

Hold musepekeren over prikken for å se navnet på stasjonen.

Klikk så for å se værobservasjoner og -varsler.

For å forandre kartet kan du klikke på den grønne knappen med svart kryss for å zoome inn, på den grønne knappen med strek for å zoome ut, eller på de grønne pilene for å se tilstøtende kart.


METAR-TAF: